sensor_id;sensor_type;location;lat;lon;timestamp;pressure;altitude;pressure_sealevel;temperature;humidity
55187;BME280;55457;52.002;5.464;2024-02-14T00:01:18;101060.22;;;20.65;44.99
55187;BME280;55457;52.002;5.464;2024-02-14T00:03:43;101063.19;;;20.64;44.28
55187;BME280;55457;52.002;5.464;2024-02-14T00:06:09;101064.81;;;20.65;44.56
55187;BME280;55457;52.002;5.464;2024-02-14T00:08:34;101060.47;;;20.64;44.43
55187;BME280;55457;52.002;5.464;2024-02-14T00:11:00;101047.19;;;20.62;44.65
55187;BME280;55457;52.002;5.464;2024-02-14T00:13:27;101063.19;;;20.64;44.45
55187;BME280;55457;52.002;5.464;2024-02-14T00:15:52;101041.78;;;20.62;44.60
55187;BME280;55457;52.002;5.464;2024-02-14T00:18:17;101046.34;;;20.62;44.31
55187;BME280;55457;52.002;5.464;2024-02-14T00:20:44;101043.63;;;20.62;44.75
55187;BME280;55457;52.002;5.464;2024-02-14T00:23:09;101046.34;;;20.62;44.61
55187;BME280;55457;52.002;5.464;2024-02-14T00:25:36;101043.88;;;20.60;44.44
55187;BME280;55457;52.002;5.464;2024-02-14T00:28:02;101042.00;;;20.61;44.37
55187;BME280;55457;52.002;5.464;2024-02-14T00:30:29;101040.34;;;20.59;44.74
55187;BME280;55457;52.002;5.464;2024-02-14T00:32:55;101028.94;;;20.57;44.48
55187;BME280;55457;52.002;5.464;2024-02-14T00:35:20;101031.16;;;20.61;44.67
55187;BME280;55457;52.002;5.464;2024-02-14T00:37:46;101033.28;;;20.58;44.52
55187;BME280;55457;52.002;5.464;2024-02-14T00:40:11;101035.19;;;20.58;44.61
55187;BME280;55457;52.002;5.464;2024-02-14T00:42:36;101028.44;;;20.61;44.74
55187;BME280;55457;52.002;5.464;2024-02-14T00:45:02;101031.97;;;20.61;44.77
55187;BME280;55457;52.002;5.464;2024-02-14T00:47:28;101025.75;;;20.61;44.83
55187;BME280;55457;52.002;5.464;2024-02-14T00:49:53;101029.06;;;20.63;44.84
55187;BME280;55457;52.002;5.464;2024-02-14T00:52:19;101025.28;;;20.64;44.85
55187;BME280;55457;52.002;5.464;2024-02-14T00:54:46;101019.88;;;20.64;44.59
55187;BME280;55457;52.002;5.464;2024-02-14T00:57:12;101026.09;;;20.64;44.38
55187;BME280;55457;52.002;5.464;2024-02-14T00:59:37;101024.22;;;20.65;44.63
55187;BME280;55457;52.002;5.464;2024-02-14T01:02:04;101018.53;;;20.66;44.79
55187;BME280;55457;52.002;5.464;2024-02-14T01:04:29;101021.50;;;20.65;44.84
55187;BME280;55457;52.002;5.464;2024-02-14T01:06:55;101030.19;;;20.67;44.86
55187;BME280;55457;52.002;5.464;2024-02-14T01:09:20;101035.63;;;20.67;44.76
55187;BME280;55457;52.002;5.464;2024-02-14T01:11:45;101031.00;;;20.67;44.49
55187;BME280;55457;52.002;5.464;2024-02-14T01:14:11;101026.44;;;20.68;44.52
55187;BME280;55457;52.002;5.464;2024-02-14T01:16:43;101024.31;;;20.70;44.48
55187;BME280;55457;52.002;5.464;2024-02-14T01:19:09;101024.56;;;20.68;44.74
55187;BME280;55457;52.002;5.464;2024-02-14T01:21:34;101022.41;;;20.70;44.66
55187;BME280;55457;52.002;5.464;2024-02-14T01:24:00;101028.09;;;20.69;44.81
55187;BME280;55457;52.002;5.464;2024-02-14T01:26:25;101024.31;;;20.70;44.95
55187;BME280;55457;52.002;5.464;2024-02-14T01:28:51;101028.09;;;20.69;44.90
55187;BME280;55457;52.002;5.464;2024-02-14T01:31:16;101029.72;;;20.70;44.97
55187;BME280;55457;52.002;5.464;2024-02-14T01:33:42;101029.72;;;20.70;45.01
55187;BME280;55457;52.002;5.464;2024-02-14T01:36:08;101019.97;;;20.69;44.98
55187;BME280;55457;52.002;5.464;2024-02-14T01:38:34;101025.38;;;20.69;44.88
55187;BME280;55457;52.002;5.464;2024-02-14T01:41:02;101025.13;;;20.70;44.76
55187;BME280;55457;52.002;5.464;2024-02-14T01:43:28;101018.91;;;20.70;44.82
55187;BME280;55457;52.002;5.464;2024-02-14T01:45:53;101024.31;;;20.70;45.05
55187;BME280;55457;52.002;5.464;2024-02-14T01:48:18;101025.38;;;20.69;44.97
55187;BME280;55457;52.002;5.464;2024-02-14T01:50:44;101028.09;;;20.69;44.82
55187;BME280;55457;52.002;5.464;2024-02-14T01:53:11;101024.31;;;20.70;44.86
55187;BME280;55457;52.002;5.464;2024-02-14T01:55:37;101021.59;;;20.70;44.89
55187;BME280;55457;52.002;5.464;2024-02-14T01:58:02;101026.44;;;20.68;44.70
55187;BME280;55457;52.002;5.464;2024-02-14T02:00:32;101028.09;;;20.69;45.11
55187;BME280;55457;52.002;5.464;2024-02-14T02:02:59;101021.84;;;20.68;45.13
55187;BME280;55457;52.002;5.464;2024-02-14T02:05:25;101035.41;;;20.68;45.23
55187;BME280;55457;52.002;5.464;2024-02-14T02:07:51;101032.69;;;20.68;45.26
55187;BME280;55457;52.002;5.464;2024-02-14T02:10:16;101032.69;;;20.68;45.04
55187;BME280;55457;52.002;5.464;2024-02-14T02:12:41;101029.16;;;20.68;45.23
55187;BME280;55457;52.002;5.464;2024-02-14T02:15:08;101027.50;;;20.67;44.90
55187;BME280;55457;52.002;5.464;2024-02-14T02:17:39;101026.44;;;20.68;45.10
55187;BME280;55457;52.002;5.464;2024-02-14T02:20:05;101035.63;;;20.67;45.31
55187;BME280;55457;52.002;5.464;2024-02-14T02:22:32;101018.53;;;20.66;45.12
55187;BME280;55457;52.002;5.464;2024-02-14T02:25:03;101024.78;;;20.67;45.46
55187;BME280;55457;52.002;5.464;2024-02-14T02:27:32;101031.00;;;20.67;45.32
55187;BME280;55457;52.002;5.464;2024-02-14T02:29:57;101036.44;;;20.67;45.31
55187;BME280;55457;52.002;5.464;2024-02-14T02:32:22;101030.19;;;20.67;45.12
55187;BME280;55457;52.002;5.464;2024-02-14T02:34:48;101038.91;;;20.69;45.23
55187;BME280;55457;52.002;5.464;2024-02-14T02:37:13;101041.03;;;20.67;45.62
55187;BME280;55457;52.002;5.464;2024-02-14T02:39:38;101043.72;;;20.67;45.14
55187;BME280;55457;52.002;5.464;2024-02-14T02:42:04;101057.28;;;20.67;45.34
55187;BME280;55457;52.002;5.464;2024-02-14T02:44:31;101040.22;;;20.66;45.37
55187;BME280;55457;52.002;5.464;2024-02-14T02:46:56;101051.84;;;20.67;45.44
55187;BME280;55457;52.002;5.464;2024-02-14T02:49:21;101049.16;;;20.67;45.24
55187;BME280;55457;52.002;5.464;2024-02-14T02:51:47;101047.25;;;20.67;45.40
55187;BME280;55457;52.002;5.464;2024-02-14T02:54:13;101050.81;;;20.68;45.56
55187;BME280;55457;52.002;5.464;2024-02-14T02:56:39;101053.53;;;20.68;45.42
55187;BME280;55457;52.002;5.464;2024-02-14T02:59:06;101044.81;;;20.66;45.42
55187;BME280;55457;52.002;5.464;2024-02-14T03:01:37;101051.84;;;20.67;45.39
55187;BME280;55457;52.002;5.464;2024-02-14T03:04:03;101049.66;;;20.64;45.52
55187;BME280;55457;52.002;5.464;2024-02-14T03:06:28;101044.81;;;20.66;45.19
55187;BME280;55457;52.002;5.464;2024-02-14T03:08:53;101051.84;;;20.67;45.54
55187;BME280;55457;52.002;5.464;2024-02-14T03:11:21;101049.41;;;20.65;45.45
55187;BME280;55457;52.002;5.464;2024-02-14T03:13:46;101050.22;;;20.66;45.46
55187;BME280;55457;52.002;5.464;2024-02-14T03:16:14;101048.59;;;20.65;45.59
55187;BME280;55457;52.002;5.464;2024-02-14T03:18:40;101048.59;;;20.65;45.74
55187;BME280;55457;52.002;5.464;2024-02-14T03:21:05;101054.00;;;20.65;45.72
55187;BME280;55457;52.002;5.464;2024-02-14T03:23:31;101048.59;;;20.65;45.60
55187;BME280;55457;52.002;5.464;2024-02-14T03:25:56;101052.34;;;20.64;45.57
55187;BME280;55457;52.002;5.464;2024-02-14T03:28:22;101057.78;;;20.64;45.85
55187;BME280;55457;52.002;5.464;2024-02-14T03:30:47;101050.72;;;20.63;45.81
55187;BME280;55457;52.002;5.464;2024-02-14T03:33:13;101051.75;;;20.62;45.70
55187;BME280;55457;52.002;5.464;2024-02-14T03:35:38;101056.13;;;20.63;45.78
55187;BME280;55457;52.002;5.464;2024-02-14T03:38:03;101057.78;;;20.64;45.88
55187;BME280;55457;52.002;5.464;2024-02-14T03:40:29;101059.88;;;20.62;45.90
55187;BME280;55457;52.002;5.464;2024-02-14T03:42:56;101065.28;;;20.62;45.95
55187;BME280;55457;52.002;5.464;2024-02-14T03:45:22;101071.56;;;20.62;46.08
55187;BME280;55457;52.002;5.464;2024-02-14T03:47:47;101075.91;;;20.63;45.98
55187;BME280;55457;52.002;5.464;2024-02-14T03:50:12;101065.28;;;20.62;46.14
55187;BME280;55457;52.002;5.464;2024-02-14T03:52:38;101075.31;;;20.61;45.96
55187;BME280;55457;52.002;5.464;2024-02-14T03:55:05;101066.16;;;20.62;46.10
55187;BME280;55457;52.002;5.464;2024-02-14T03:57:31;101069.06;;;20.61;46.12
55187;BME280;55457;52.002;5.464;2024-02-14T04:00:00;101067.19;;;20.61;45.95
55187;BME280;55457;52.002;5.464;2024-02-14T04:02:28;101073.66;;;20.60;46.38
55187;BME280;55457;52.002;5.464;2024-02-14T04:04:54;101071.78;;;20.61;46.34
55187;BME280;55457;52.002;5.464;2024-02-14T04:07:20;101079.91;;;20.61;46.49
55187;BME280;55457;52.002;5.464;2024-02-14T04:09:45;101079.91;;;20.61;46.31
55187;BME280;55457;52.002;5.464;2024-02-14T04:12:10;101087.22;;;20.60;46.47
55187;BME280;55457;52.002;5.464;2024-02-14T04:14:36;101088.03;;;20.61;45.98
55187;BME280;55457;52.002;5.464;2024-02-14T04:17:03;101087.44;;;20.58;46.18
55187;BME280;55457;52.002;5.464;2024-02-14T04:19:29;101094.50;;;20.59;46.24
55187;BME280;55457;52.002;5.464;2024-02-14T04:21:54;101085.56;;;20.59;46.24
55187;BME280;55457;52.002;5.464;2024-02-14T04:24:20;101087.22;;;20.60;46.26
55187;BME280;55457;52.002;5.464;2024-02-14T04:26:45;101099.09;;;20.59;46.53
55187;BME280;55457;52.002;5.464;2024-02-14T04:29:13;101089.09;;;20.59;46.35
55187;BME280;55457;52.002;5.464;2024-02-14T04:31:38;101091.22;;;20.57;46.28
55187;BME280;55457;52.002;5.464;2024-02-14T04:34:03;101100.16;;;20.58;46.29
55187;BME280;55457;52.002;5.464;2024-02-14T04:36:30;101103.69;;;20.58;46.35
55187;BME280;55457;52.002;5.464;2024-02-14T04:38:57;101099.34;;;20.57;46.30
55187;BME280;55457;52.002;5.464;2024-02-14T04:41:22;101101.00;;;20.58;46.66
55187;BME280;55457;52.002;5.464;2024-02-14T04:43:48;101102.06;;;20.57;46.72
55187;BME280;55457;52.002;5.464;2024-02-14T04:46:14;101103.94;;;20.57;46.56
55187;BME280;55457;52.002;5.464;2024-02-14T04:48:39;101111.00;;;20.58;46.48
55187;BME280;55457;52.002;5.464;2024-02-14T04:51:04;101106.66;;;20.57;46.67
55187;BME280;55457;52.002;5.464;2024-02-14T04:53:30;101110.41;;;20.56;46.41
55187;BME280;55457;52.002;5.464;2024-02-14T04:55:56;101116.63;;;20.56;46.74
55187;BME280;55457;52.002;5.464;2024-02-14T04:58:21;101123.72;;;20.57;46.49
55187;BME280;55457;52.002;5.464;2024-02-14T05:00:47;101117.69;;;20.55;46.51
55187;BME280;55457;52.002;5.464;2024-02-14T05:03:12;101127.47;;;20.56;46.65
55187;BME280;55457;52.002;5.464;2024-02-14T05:05:37;101117.69;;;20.55;46.58
55187;BME280;55457;52.002;5.464;2024-02-14T05:08:03;101124.75;;;20.56;46.71
55187;BME280;55457;52.002;5.464;2024-02-14T05:10:29;101125.81;;;20.55;46.58
55187;BME280;55457;52.002;5.464;2024-02-14T05:12:54;101128.53;;;20.55;46.91
55187;BME280;55457;52.002;5.464;2024-02-14T05:15:20;101126.91;;;20.54;46.86
55187;BME280;55457;52.002;5.464;2024-02-14T05:17:45;101133.38;;;20.53;46.69
55187;BME280;55457;52.002;5.464;2024-02-14T05:20:11;101129.59;;;20.54;46.90
55187;BME280;55457;52.002;5.464;2024-02-14T05:22:37;101138.78;;;20.53;46.91
55187;BME280;55457;52.002;5.464;2024-02-14T05:25:03;101138.78;;;20.53;46.78
55187;BME280;55457;52.002;5.464;2024-02-14T05:27:30;101138.78;;;20.53;46.91
55187;BME280;55457;52.002;5.464;2024-02-14T05:29:55;101155.03;;;20.53;46.73
55187;BME280;55457;52.002;5.464;2024-02-14T05:32:20;101138.78;;;20.53;46.79
55187;BME280;55457;52.002;5.464;2024-02-14T05:34:46;101145.03;;;20.54;46.73
55187;BME280;55457;52.002;5.464;2024-02-14T05:37:11;101155.03;;;20.53;46.80
55187;BME280;55457;52.002;5.464;2024-02-14T05:39:36;101146.91;;;20.53;46.83
55187;BME280;55457;52.002;5.464;2024-02-14T05:42:02;101144.22;;;20.53;47.08
55187;BME280;55457;52.002;5.464;2024-02-14T05:44:27;101146.91;;;20.53;47.06
55187;BME280;55457;52.002;5.464;2024-02-14T05:46:53;101143.38;;;20.53;46.68
55187;BME280;55457;52.002;5.464;2024-02-14T05:49:19;101152.09;;;20.55;47.09
55187;BME280;55457;52.002;5.464;2024-02-14T05:51:44;101146.91;;;20.53;46.87
55187;BME280;55457;52.002;5.464;2024-02-14T05:54:09;101152.09;;;20.55;47.19
55187;BME280;55457;52.002;5.464;2024-02-14T05:56:35;101154.78;;;20.55;47.14
55187;BME280;55457;52.002;5.464;2024-02-14T05:59:02;101156.69;;;20.54;47.04
55187;BME280;55457;52.002;5.464;2024-02-14T06:01:27;101162.09;;;20.54;47.25
55187;BME280;55457;52.002;5.464;2024-02-14T06:03:53;101155.03;;;20.53;47.08
55187;BME280;55457;52.002;5.464;2024-02-14T06:06:19;101155.03;;;20.53;47.25
55187;BME280;55457;52.002;5.464;2024-02-14T06:08:44;101153.97;;;20.54;46.99
55187;BME280;55457;52.002;5.464;2024-02-14T06:11:09;101160.44;;;20.53;47.20
55187;BME280;55457;52.002;5.464;2024-02-14T06:13:35;101163.97;;;20.54;47.13
55187;BME280;55457;52.002;5.464;2024-02-14T06:16:03;101158.56;;;20.54;47.36
55187;BME280;55457;52.002;5.464;2024-02-14T06:18:29;101171.28;;;20.53;47.16
55187;BME280;55457;52.002;5.464;2024-02-14T06:20:54;101167.75;;;20.53;47.23
55187;BME280;55457;52.002;5.464;2024-02-14T06:23:19;101179.41;;;20.53;47.16
55187;BME280;55457;52.002;5.464;2024-02-14T06:25:45;101182.13;;;20.53;47.42
55187;BME280;55457;52.002;5.464;2024-02-14T06:28:10;101175.06;;;20.52;47.15
55187;BME280;55457;52.002;5.464;2024-02-14T06:30:36;101176.09;;;20.51;47.29
55187;BME280;55457;52.002;5.464;2024-02-14T06:33:01;101188.59;;;20.52;47.38
55187;BME280;55457;52.002;5.464;2024-02-14T06:35:27;101191.31;;;20.52;47.40
55187;BME280;55457;52.002;5.464;2024-02-14T06:37:53;101183.19;;;20.52;47.50
55187;BME280;55457;52.002;5.464;2024-02-14T06:40:19;101194.81;;;20.53;47.58
55187;BME280;55457;52.002;5.464;2024-02-14T06:42:44;101203.78;;;20.53;47.49
55187;BME280;55457;52.002;5.464;2024-02-14T06:45:09;101204.84;;;20.52;47.31
55187;BME280;55457;52.002;5.464;2024-02-14T06:47:35;101198.34;;;20.53;47.60
55187;BME280;55457;52.002;5.464;2024-02-14T06:50:00;101199.44;;;20.52;47.37
55187;BME280;55457;52.002;5.464;2024-02-14T06:52:26;101195.91;;;20.52;47.54
55187;BME280;55457;52.002;5.464;2024-02-14T06:54:51;101194.00;;;20.52;47.50
55187;BME280;55457;52.002;5.464;2024-02-14T06:57:17;101199.44;;;20.52;47.62
55187;BME280;55457;52.002;5.464;2024-02-14T06:59:43;101200.25;;;20.53;47.59
55187;BME280;55457;52.002;5.464;2024-02-14T07:02:08;101202.13;;;20.52;47.42
55187;BME280;55457;52.002;5.464;2024-02-14T07:04:33;101199.19;;;20.54;47.53
55187;BME280;55457;52.002;5.464;2024-02-14T07:06:59;101212.97;;;20.52;47.36
55187;BME280;55457;52.002;5.464;2024-02-14T07:09:25;101214.59;;;20.53;47.71
55187;BME280;55457;52.002;5.464;2024-02-14T07:11:51;101218.38;;;20.52;47.56
55187;BME280;55457;52.002;5.464;2024-02-14T07:14:19;101214.59;;;20.53;47.47
55187;BME280;55457;52.002;5.464;2024-02-14T07:16:44;101216.69;;;20.51;47.60
55187;BME280;55457;52.002;5.464;2024-02-14T07:19:09;101214.00;;;20.51;48.00
55187;BME280;55457;52.002;5.464;2024-02-14T07:21:35;101217.56;;;20.52;48.40
55187;BME280;55457;52.002;5.464;2024-02-14T07:24:03;101228.84;;;20.49;48.48
55187;BME280;55457;52.002;5.464;2024-02-14T07:26:29;101222.59;;;20.48;48.77
55187;BME280;55457;52.002;5.464;2024-02-14T07:28:54;101216.38;;;20.48;48.99
55187;BME280;55457;52.002;5.464;2024-02-14T07:31:19;101213.66;;;20.48;48.87
55187;BME280;55457;52.002;5.464;2024-02-14T07:33:45;101217.44;;;20.47;49.15
55187;BME280;55457;52.002;5.464;2024-02-14T07:36:11;101217.19;;;20.48;49.34
55187;BME280;55457;52.002;5.464;2024-02-14T07:38:37;101212.03;;;20.47;49.70
55187;BME280;55457;52.002;5.464;2024-02-14T07:41:02;101212.84;;;20.47;49.61
55187;BME280;55457;52.002;5.464;2024-02-14T07:43:27;101219.28;;;20.46;49.89
55187;BME280;55457;52.002;5.464;2024-02-14T07:45:53;101218.44;;;20.46;50.12
55187;BME280;55457;52.002;5.464;2024-02-14T07:48:18;101222.00;;;20.46;49.65
55187;BME280;55457;52.002;5.464;2024-02-14T07:50:44;101229.25;;;20.46;49.54
55187;BME280;55457;52.002;5.464;2024-02-14T07:53:10;101240.94;;;20.46;50.14
55187;BME280;55457;52.002;5.464;2024-02-14T07:55:35;101237.63;;;20.44;49.51
55187;BME280;55457;52.002;5.464;2024-02-14T07:58:01;101227.63;;;20.45;49.85
55187;BME280;55457;52.002;5.464;2024-02-14T08:00:26;101233.84;;;20.45;50.04
55187;BME280;55457;52.002;5.464;2024-02-14T08:02:52;101234.69;;;20.46;50.12
55187;BME280;55457;52.002;5.464;2024-02-14T08:05:17;101240.09;;;20.46;49.86
55187;BME280;55457;52.002;5.464;2024-02-14T08:07:44;101240.94;;;20.46;49.92
55187;BME280;55457;52.002;5.464;2024-02-14T08:10:11;101245.91;;;20.49;49.53
55187;BME280;55457;52.002;5.464;2024-02-14T08:12:36;101251.31;;;20.49;49.76
55187;BME280;55457;52.002;5.464;2024-02-14T08:15:02;101245.91;;;20.49;49.76
55187;BME280;55457;52.002;5.464;2024-02-14T08:17:30;101249.69;;;20.48;49.90
55187;BME280;55457;52.002;5.464;2024-02-14T08:19:55;101244.25;;;20.48;49.71
55187;BME280;55457;52.002;5.464;2024-02-14T08:22:20;101252.97;;;20.50;49.89
55187;BME280;55457;52.002;5.464;2024-02-14T08:24:46;101254.59;;;20.51;49.67
55187;BME280;55457;52.002;5.464;2024-02-14T08:27:11;101255.47;;;20.52;49.73
55187;BME280;55457;52.002;5.464;2024-02-14T08:29:37;101253.56;;;20.52;49.60
55187;BME280;55457;52.002;5.464;2024-02-14T08:32:02;101255.22;;;20.53;49.80
55187;BME280;55457;52.002;5.464;2024-02-14T08:34:28;101250.63;;;20.54;49.53
55187;BME280;55457;52.002;5.464;2024-02-14T08:36:54;101247.09;;;20.53;49.46
55187;BME280;55457;52.002;5.464;2024-02-14T08:39:19;101254.97;;;20.55;49.76
55187;BME280;55457;52.002;5.464;2024-02-14T08:41:45;101253.56;;;20.52;49.76
55187;BME280;55457;52.002;5.464;2024-02-14T08:44:15;101257.44;;;20.56;49.41
55187;BME280;55457;52.002;5.464;2024-02-14T08:46:40;101266.63;;;20.55;49.40
55187;BME280;55457;52.002;5.464;2024-02-14T08:49:07;101262.84;;;20.56;49.64
55187;BME280;55457;52.002;5.464;2024-02-14T08:51:37;101267.22;;;20.57;49.29
55187;BME280;55457;52.002;5.464;2024-02-14T08:54:04;101259.31;;;20.56;49.49
55187;BME280;55457;52.002;5.464;2024-02-14T08:56:31;101258.28;;;20.57;49.36
55187;BME280;55457;52.002;5.464;2024-02-14T08:59:01;101257.44;;;20.56;49.35
55187;BME280;55457;52.002;5.464;2024-02-14T09:01:28;101255.78;;;20.55;49.27
55187;BME280;55457;52.002;5.464;2024-02-14T09:03:54;101258.50;;;20.55;49.29
55187;BME280;55457;52.002;5.464;2024-02-14T09:06:19;101268.06;;;20.58;49.34
55187;BME280;55457;52.002;5.464;2024-02-14T09:08:44;101268.28;;;20.56;49.57
55187;BME280;55457;52.002;5.464;2024-02-14T09:11:10;101272.66;;;20.57;49.57
55187;BME280;55457;52.002;5.464;2024-02-14T09:13:37;101269.94;;;20.57;49.28
55187;BME280;55457;52.002;5.464;2024-02-14T09:16:03;101272.88;;;20.56;49.29
55187;BME280;55457;52.002;5.464;2024-02-14T09:18:28;101266.63;;;20.55;49.20
55187;BME280;55457;52.002;5.464;2024-02-14T09:20:56;101285.38;;;20.57;49.69
55187;BME280;55457;52.002;5.464;2024-02-14T09:23:22;101279.09;;;20.56;49.17
55187;BME280;55457;52.002;5.464;2024-02-14T09:25:48;101281.00;;;20.56;49.49
55187;BME280;55457;52.002;5.464;2024-02-14T09:28:15;101286.19;;;20.57;49.18
55187;BME280;55457;52.002;5.464;2024-02-14T09:30:41;101287.00;;;20.58;49.40
55187;BME280;55457;52.002;5.464;2024-02-14T09:33:07;101281.59;;;20.58;49.48
55187;BME280;55457;52.002;5.464;2024-02-14T09:35:32;101283.47;;;20.57;49.26
55187;BME280;55457;52.002;5.464;2024-02-14T09:37:57;101284.06;;;20.59;49.27
55187;BME280;55457;52.002;5.464;2024-02-14T09:40:25;101291.94;;;20.61;49.35
55187;BME280;55457;52.002;5.464;2024-02-14T09:42:55;101281.13;;;20.61;49.24
55187;BME280;55457;52.002;5.464;2024-02-14T09:45:26;101277.38;;;20.62;49.32
55187;BME280;55457;52.002;5.464;2024-02-14T09:47:52;101290.66;;;20.64;49.45
55187;BME280;55457;52.002;5.464;2024-02-14T09:50:19;101292.31;;;20.65;49.28
55187;BME280;55457;52.002;5.464;2024-02-14T09:52:47;101289.34;;;20.66;49.03
55187;BME280;55457;52.002;5.464;2024-02-14T09:55:14;101294.56;;;20.68;49.21
55187;BME280;55457;52.002;5.464;2024-02-14T09:57:41;101292.69;;;20.68;49.01
55187;BME280;55457;52.002;5.464;2024-02-14T10:00:09;101297.59;;;20.71;49.28
55187;BME280;55457;52.002;5.464;2024-02-14T10:02:35;101308.44;;;20.71;49.20
55187;BME280;55457;52.002;5.464;2024-02-14T10:05:01;101300.09;;;20.73;49.30
55187;BME280;55457;52.002;5.464;2024-02-14T10:07:27;101296.31;;;20.74;49.17
55187;BME280;55457;52.002;5.464;2024-02-14T10:09:53;101297.38;;;20.73;49.17
55187;BME280;55457;52.002;5.464;2024-02-14T10:12:19;101294.19;;;20.76;48.99
55187;BME280;55457;52.002;5.464;2024-02-14T10:14:44;101296.66;;;20.77;49.08
55187;BME280;55457;52.002;5.464;2024-02-14T10:17:20;101295.63;;;20.78;49.16
55187;BME280;55457;52.002;5.464;2024-02-14T10:19:57;101292.66;;;20.80;49.04
55187;BME280;55457;52.002;5.464;2024-02-14T10:22:23;101295.97;;;20.82;48.88
55187;BME280;55457;52.002;5.464;2024-02-14T10:24:50;101298.22;;;20.85;48.86
55187;BME280;55457;52.002;5.464;2024-02-14T10:27:15;101300.91;;;20.85;48.93
55187;BME280;55457;52.002;5.464;2024-02-14T10:29:41;101301.50;;;20.87;48.93
55187;BME280;55457;52.002;5.464;2024-02-14T10:32:07;101306.91;;;20.87;48.54
55187;BME280;55457;52.002;5.464;2024-02-14T10:34:33;101314.00;;;20.88;48.50
55187;BME280;55457;52.002;5.464;2024-02-14T10:36:58;101306.69;;;20.89;48.47
55187;BME280;55457;52.002;5.464;2024-02-14T10:39:25;101316.47;;;20.90;48.67
55187;BME280;55457;52.002;5.464;2024-02-14T10:41:52;101311.28;;;20.88;48.81
55187;BME280;55457;52.002;5.464;2024-02-14T10:44:17;101310.56;;;20.93;48.76
55187;BME280;55457;52.002;5.464;2024-02-14T10:46:44;101306.81;;;20.94;48.55
55187;BME280;55457;52.002;5.464;2024-02-14T10:49:12;101313.88;;;20.95;48.49
55187;BME280;55457;52.002;5.464;2024-02-14T10:51:40;101314.69;;;20.95;48.63
55187;BME280;55457;52.002;5.464;2024-02-14T10:54:11;101306.56;;;20.95;48.77
55187;BME280;55457;52.002;5.464;2024-02-14T10:56:41;101316.34;;;20.96;48.74
55187;BME280;55457;52.002;5.464;2024-02-14T10:59:11;101316.34;;;20.96;48.71
55187;BME280;55457;52.002;5.464;2024-02-14T11:01:38;101304.69;;;20.96;48.41
55187;BME280;55457;52.002;5.464;2024-02-14T11:04:05;101312.56;;;20.97;48.85
55187;BME280;55457;52.002;5.464;2024-02-14T11:06:30;101312.56;;;20.97;48.71
55187;BME280;55457;52.002;5.464;2024-02-14T11:09:05;101305.50;;;20.96;48.93
55187;BME280;55457;52.002;5.464;2024-02-14T11:11:35;101299.03;;;20.97;48.69
55187;BME280;55457;52.002;5.464;2024-02-14T11:14:02;101297.63;;;20.95;48.77
55187;BME280;55457;52.002;5.464;2024-02-14T11:16:30;101294.41;;;20.98;48.80
55187;BME280;55457;52.002;5.464;2024-02-14T11:19:10;101301.72;;;20.97;48.66
55187;BME280;55457;52.002;5.464;2024-02-14T11:21:37;101297.13;;;20.98;48.54
55187;BME280;55457;52.002;5.464;2024-02-14T11:24:07;101292.78;;;20.97;48.55
55187;BME280;55457;52.002;5.464;2024-02-14T11:26:45;101295.50;;;20.97;48.74
55187;BME280;55457;52.002;5.464;2024-02-14T11:29:14;101275.59;;;20.91;48.92
55187;BME280;55457;52.002;5.464;2024-02-14T11:31:39;101289.25;;;20.96;48.40
55187;BME280;55457;52.002;5.464;2024-02-14T11:34:05;101290.88;;;20.97;48.93
55187;BME280;55457;52.002;5.464;2024-02-14T11:36:32;101277.34;;;20.97;48.90
55187;BME280;55457;52.002;5.464;2024-02-14T11:38:58;101285.47;;;20.97;48.94
55187;BME280;55457;52.002;5.464;2024-02-14T11:41:23;101287.13;;;20.98;48.82
55187;BME280;55457;52.002;5.464;2024-02-14T11:43:52;101287.59;;;20.95;48.68
55187;BME280;55457;52.002;5.464;2024-02-14T11:46:17;101280.06;;;20.97;48.90
55187;BME280;55457;52.002;5.464;2024-02-14T11:48:43;101281.69;;;20.98;48.75
55187;BME280;55457;52.002;5.464;2024-02-14T11:51:11;101279.22;;;20.97;48.88
55187;BME280;55457;52.002;5.464;2024-02-14T11:53:36;101279.22;;;20.97;48.58
55187;BME280;55457;52.002;5.464;2024-02-14T11:56:02;101279.22;;;20.97;48.76
55187;BME280;55457;52.002;5.464;2024-02-14T11:58:27;101275.47;;;20.98;48.75
55187;BME280;55457;52.002;5.464;2024-02-14T12:00:53;101280.06;;;20.97;48.74
55187;BME280;55457;52.002;5.464;2024-02-14T12:03:20;101279.22;;;20.97;48.76
55187;BME280;55457;52.002;5.464;2024-02-14T12:05:47;101280.06;;;20.97;48.78
55187;BME280;55457;52.002;5.464;2024-02-14T12:08:14;101279.47;;;20.95;49.07
55187;BME280;55457;52.002;5.464;2024-02-14T12:10:42;101273.00;;;20.96;49.13
55187;BME280;55457;52.002;5.464;2024-02-14T12:13:09;101271.34;;;20.95;49.10
55187;BME280;55457;52.002;5.464;2024-02-14T12:15:41;101269.72;;;20.94;49.05
55187;BME280;55457;52.002;5.464;2024-02-14T12:18:07;101269.72;;;20.94;49.30
55187;BME280;55457;52.002;5.464;2024-02-14T12:20:33;101271.81;;;20.92;49.32
55187;BME280;55457;52.002;5.464;2024-02-14T12:22:59;101279.47;;;20.95;49.47
55187;BME280;55457;52.002;5.464;2024-02-14T12:25:25;101275.13;;;20.94;49.25
55187;BME280;55457;52.002;5.464;2024-02-14T12:27:51;101281.00;;;20.91;49.24
55187;BME280;55457;52.002;5.464;2024-02-14T12:30:17;101274.31;;;20.94;49.43
55187;BME280;55457;52.002;5.464;2024-02-14T12:32:44;101274.31;;;20.94;49.76
55187;BME280;55457;52.002;5.464;2024-02-14T12:35:10;101267.00;;;20.94;49.53
55187;BME280;55457;52.002;5.464;2024-02-14T12:37:35;101268.03;;;20.93;49.48
55187;BME280;55457;52.002;5.464;2024-02-14T12:40:01;101272.41;;;20.94;49.13
55187;BME280;55457;52.002;5.464;2024-02-14T12:42:27;101278.66;;;20.95;49.28
55187;BME280;55457;52.002;5.464;2024-02-14T12:44:55;101278.88;;;20.93;49.55